Бикин (Ручей Быстрый)

Карта отелей и гостиниц, располагающихся рядом с аэропортом Бикин (Ручей Быстрый) :

Бикин (Ручей Быстрый) Хабаровский край 46° 50' 21.3" N, 134° 18' 27.0612" E
Бикин (Ручей Быстрый) Хабаровский край 46° 50' 21.3" N, 134° 18' 27.0612" E
Код аэродрома ИКАО: 
HFP9
Код аэродрома RU: 
ХФП9
Координаты: 
N46.83925° E134.30752°
Превышение над уровнем моря : 
157
Основная полоса: 
06/24
Курс магнитный: 
056,9/236,9
Длина основной ВПП: 
20
Ширина основной ВПП: 
20
Покрытие основной ВПП: 
Твёрдое
Освещение ВПП: 
Нет
Тип: 
Вертодром
Класс аэродрома: 
Принадлежность: 
ГА
Статус: 
Действующий
Сайт: 
E-mail аэродрома: 
Страна: 
Россия
Регион: 
Хабаровский край
Город: 
Дополнительная информация: 
Оператор: нет данных.

Найти трансфер

С помощью этой формы Вы можете найти трансфер из аэропорта Бикин (Ручей Быстрый) в город, аэропорт или вокзал:

Карта места

Javascript is required to view this map.

Погода в аэропортах:

Авиационная погода в Полярном

Регион: 
Погода METAR: 
UERP 282000Z 33007G12MPS 3000 -SHSN BLSN BKN009CB OVC100 M03/M03 Q0993 R35/290340 NOSIG RMK QFE701
Время наблюдения: 
2020-09-28T20:00:00Z
Температура C: 
-3.0
Точка росы: 
-3.0
Направление ветра: 
330
Скорость ветра (узлы): 
14
Метеорологическая видимость: 
1.86
Явления погоды: 
-SHSN BLSN
Условия полета: 
IFR
Аэропорт подробнее: 

Авиационная погода в Кневичи

Регион: 
Погода METAR: 
UHWW 281930Z 35003MPS 5000 BR BKN020 15/15 Q1011 R25L/0///70 NOSIG RMK QFE757
Время наблюдения: 
2020-09-28T19:30:00Z
Температура C: 
15.0
Точка росы: 
15.0
Направление ветра: 
350
Скорость ветра (узлы): 
6
Метеорологическая видимость: 
3.11
Явления погоды: 
BR
Условия полета: 
MVFR
Аэропорт подробнее: 

Авиационная погода в аэропорту Сокол

Регион: 
Погода METAR: 
UHMM 282000Z 09001MPS 0150 R10/0150N FU FZFG VV001 M01/M02 Q1007 R10/CLRD70 RMK QBB050 MT OBSC QFE740 R28/07002MPS
Время наблюдения: 
2020-09-28T20:00:00Z
Температура C: 
-1.0
Точка росы: 
-2.0
Направление ветра: 
90
Скорость ветра (узлы): 
2
Метеорологическая видимость: 
0.09
Явления погоды: 
FU FZFG
Условия полета: 
LIFR
Аэропорт подробнее: 

Авиационная погода в Богашево

Регион: 
Погода METAR: 
UNTT 281930Z 26003MPS 8000 -SHRA FEW021CB 09/06 Q1018 R21/090060 NOSIG RMK QFE748
Время наблюдения: 
2020-09-28T19:30:00Z
Температура C: 
9.0
Точка росы: 
6.0
Направление ветра: 
260
Скорость ветра (узлы): 
6
Метеорологическая видимость: 
4.97
Явления погоды: 
-SHRA
Условия полета: 
MVFR
Аэропорт подробнее: